createdAt,value
2023-03-28T00:02:52.979Z,51.80
2023-03-28T00:07:56.895Z,51.90
2023-03-28T00:13:00.582Z,51.80
2023-03-28T00:18:09.580Z,51.90
2023-03-28T00:23:14.003Z,51.90
2023-03-28T00:28:17.128Z,52.00
2023-03-28T00:33:21.944Z,52.00
2023-03-28T00:38:27.568Z,52.20
2023-03-28T00:43:41.770Z,52.20
2023-03-28T00:48:50.776Z,52.30
2023-03-28T00:53:58.024Z,52.20
2023-03-28T00:59:06.682Z,52.20
2023-03-28T01:04:12.341Z,52.20
2023-03-28T01:09:17.541Z,52.20
2023-03-28T01:14:27.624Z,52.10
2023-03-28T01:19:47.950Z,52.10
2023-03-28T01:25:25.351Z,52.20
2023-03-28T01:30:53.479Z,52.30
2023-03-28T01:36:46.420Z,52.30
2023-03-28T01:41:56.291Z,52.20
2023-03-28T01:47:06.817Z,52.10
2023-03-28T01:58:53.635Z,52.10
2023-03-28T02:04:20.527Z,52.00
2023-03-28T02:09:34.356Z,52.20
2023-03-28T02:14:45.015Z,52.30
2023-03-28T02:20:28.069Z,52.30
2023-03-28T02:25:42.024Z,52.30
2023-03-28T02:31:21.339Z,52.20
2023-03-28T02:36:38.678Z,52.20
2023-03-28T02:41:54.581Z,52.20
2023-03-28T02:47:06.001Z,52.20
2023-03-28T02:52:20.192Z,52.20
2023-03-28T02:57:32.022Z,52.20
2023-03-28T03:02:38.196Z,52.20
2023-03-28T03:07:41.613Z,52.10
2023-03-28T03:12:46.343Z,52.10
2023-03-28T03:17:52.141Z,52.20
2023-03-28T03:23:01.333Z,52.10
2023-03-28T03:28:06.294Z,52.00
2023-03-28T03:33:10.728Z,52.10
2023-03-28T03:38:14.627Z,52.70
2023-03-28T03:43:22.238Z,52.00
2023-03-28T03:48:25.650Z,52.10
2023-03-28T03:53:37.501Z,52.10
2023-03-28T03:58:47.694Z,52.20
2023-03-28T04:03:51.928Z,52.40
2023-03-28T04:09:01.542Z,52.40
2023-03-28T04:14:28.207Z,52.60
2023-03-28T04:19:51.788Z,52.50
2023-03-28T04:24:56.731Z,52.50
2023-03-28T04:30:15.530Z,52.40
2023-03-28T04:35:39.183Z,52.30
2023-03-28T04:40:44.780Z,52.40
2023-03-28T04:46:00.648Z,52.40
2023-03-28T04:51:04.263Z,52.50
2023-03-28T04:56:14.129Z,52.70
2023-03-28T05:01:19.110Z,52.70
2023-03-28T05:06:42.612Z,52.80
2023-03-28T05:11:50.892Z,52.90
2023-03-28T05:16:55.956Z,52.90
2023-03-28T05:22:21.720Z,53.00
2023-03-28T05:27:25.365Z,53.00
2023-03-28T05:32:30.360Z,53.10
2023-03-28T05:37:33.611Z,52.90
2023-03-28T05:42:40.540Z,53.00
2023-03-28T05:47:54.559Z,52.90
2023-03-28T05:52:59.765Z,52.90
2023-03-28T05:58:03.073Z,52.90
2023-03-28T06:03:17.502Z,52.90
2023-03-28T06:08:21.851Z,53.10
2023-03-28T06:14:11.264Z,53.10
2023-03-28T06:19:24.941Z,53.30
2023-03-28T06:24:31.529Z,53.50
2023-03-28T06:29:34.803Z,53.50
2023-03-28T06:34:41.395Z,53.50
2023-03-28T06:39:45.405Z,53.60
2023-03-28T06:44:48.576Z,53.60
2023-03-28T06:50:05.824Z,53.70
2023-03-28T06:55:14.023Z,53.80
2023-03-28T07:00:18.939Z,53.80
2023-03-28T07:06:05.407Z,53.80
2023-03-28T07:11:09.698Z,54.10
2023-03-28T07:16:16.803Z,53.90
2023-03-28T07:21:23.089Z,54.10
2023-03-28T07:26:32.866Z,54.20
2023-03-28T07:31:37.628Z,54.30
2023-03-28T07:36:43.388Z,54.20
2023-03-28T07:41:51.651Z,53.90
2023-03-28T07:46:55.401Z,53.70
2023-03-28T07:52:00.910Z,53.80
2023-03-28T07:57:04.545Z,53.80
2023-03-28T08:02:42.583Z,53.90
2023-03-28T08:07:52.515Z,54.20
2023-03-28T08:12:56.475Z,54.40
2023-03-28T08:18:00.199Z,54.40
2023-03-28T08:23:05.038Z,54.00
2023-03-28T08:28:28.533Z,53.80
2023-03-28T08:33:32.885Z,53.80
2023-03-28T08:38:37.735Z,53.60
2023-03-28T08:44:07.551Z,54.30
2023-03-28T08:49:14.975Z,53.60
2023-03-28T08:54:24.625Z,53.50
2023-03-28T08:59:33.722Z,53.70
2023-03-28T09:04:38.259Z,53.80
2023-03-28T09:10:05.190Z,53.70
2023-03-28T09:15:26.084Z,53.70
2023-03-28T09:20:35.176Z,53.50
2023-03-28T09:25:57.182Z,53.40
2023-03-28T09:31:02.104Z,53.50
2023-03-28T09:36:14.364Z,53.70
2023-03-28T09:41:25.569Z,53.60
2023-03-28T09:46:57.568Z,53.90
2023-03-28T09:52:24.189Z,53.80
2023-03-28T09:57:48.832Z,53.60
2023-03-28T10:02:57.103Z,53.00
2023-03-28T10:08:06.205Z,52.70
2023-03-28T10:13:25.131Z,52.30
2023-03-28T10:18:31.273Z,51.50
2023-03-28T10:24:00.910Z,51.10
2023-03-28T10:29:11.305Z,51.10
2023-03-28T10:34:27.096Z,51.20
2023-03-28T10:39:41.965Z,50.50
2023-03-28T10:45:06.773Z,50.70
2023-03-28T10:50:23.496Z,50.80
2023-03-28T10:55:32.748Z,50.20
2023-03-28T11:00:59.833Z,50.60
2023-03-28T11:06:18.669Z,50.40
2023-03-28T11:11:36.134Z,49.30
2023-03-28T11:16:50.960Z,48.70
2023-03-28T11:22:15.962Z,49.00
2023-03-28T11:27:28.814Z,49.40
2023-03-28T11:33:01.082Z,49.40
2023-03-28T11:38:11.467Z,49.30
2023-03-28T11:43:28.226Z,49.40
2023-03-28T11:48:42.116Z,49.70
2023-03-28T11:53:59.241Z,49.30
2023-03-28T11:59:12.385Z,48.50
2023-03-28T12:04:23.728Z,47.60
2023-03-28T12:09:34.489Z,48.20
2023-03-28T12:14:48.330Z,48.30
2023-03-28T12:20:09.376Z,47.40
2023-03-28T12:25:15.737Z,47.30
2023-03-28T12:30:29.256Z,47.50
2023-03-28T12:35:43.992Z,47.40
2023-03-28T12:40:59.306Z,47.70
2023-03-28T12:46:10.554Z,48.50
2023-03-28T12:51:27.763Z,47.30
2023-03-28T12:56:34.769Z,46.10
2023-03-28T13:01:49.187Z,47.30
2023-03-28T13:07:12.628Z,47.40
2023-03-28T13:12:45.040Z,46.50
2023-03-28T13:17:50.143Z,47.20
2023-03-28T13:23:00.557Z,47.70
2023-03-28T13:28:29.115Z,46.60
2023-03-28T13:33:35.502Z,45.70
2023-03-28T13:38:48.238Z,46.30
2023-03-28T13:43:56.628Z,45.20
2023-03-28T13:49:07.425Z,46.10
2023-03-28T13:54:15.718Z,45.80
2023-03-28T14:06:01.377Z,45.90
2023-03-28T14:11:40.147Z,41.50
2023-03-28T14:30:37.208Z,43.80
2023-03-28T14:36:40.243Z,44.20
2023-03-28T14:42:05.809Z,43.00
2023-03-28T14:47:35.883Z,42.90
2023-03-28T14:59:58.815Z,43.50
2023-03-28T15:05:25.840Z,41.90
2023-03-28T15:10:52.861Z,41.20
2023-03-28T15:16:16.889Z,41.10
2023-03-28T15:21:40.849Z,40.90
2023-03-28T15:27:07.878Z,41.30
2023-03-28T15:32:32.826Z,41.00
2023-03-28T15:37:58.189Z,40.60
2023-03-28T15:43:41.758Z,41.20
2023-03-28T15:49:06.838Z,41.50
2023-03-28T15:54:32.045Z,37.90
2023-03-28T15:59:58.914Z,40.70
2023-03-28T16:05:48.886Z,40.00
2023-03-28T16:11:12.892Z,40.40
2023-03-28T16:16:57.943Z,41.10
2023-03-28T16:22:31.874Z,41.70
2023-03-28T16:27:55.865Z,41.30
2023-03-28T16:33:20.817Z,41.40
2023-03-28T16:38:43.894Z,40.90
2023-03-28T16:44:13.840Z,40.90
2023-03-28T16:49:40.870Z,40.10
2023-03-28T16:55:03.858Z,38.50
2023-03-28T17:00:27.915Z,39.60
2023-03-28T17:05:55.869Z,39.00
2023-03-28T17:11:19.927Z,39.10
2023-03-28T17:16:46.930Z,38.90
2023-03-28T17:22:11.894Z,40.10
2023-03-28T17:27:34.858Z,40.60
2023-03-28T17:32:58.898Z,41.10
2023-03-28T17:38:24.856Z,41.30
2023-03-28T17:43:48.852Z,41.10
2023-03-28T17:49:12.899Z,41.20
2023-03-28T17:54:37.873Z,41.50
2023-03-28T18:00:00.898Z,41.50
2023-03-28T18:05:30.069Z,41.80
2023-03-28T18:10:54.922Z,41.60
2023-03-28T18:16:20.917Z,42.20
2023-03-28T18:21:45.098Z,42.40
2023-03-28T18:27:09.906Z,42.60
2023-03-28T18:32:32.914Z,42.60
2023-03-28T18:37:55.940Z,42.70
2023-03-28T18:43:20.923Z,42.60
2023-03-28T18:48:43.947Z,42.60
2023-03-28T18:54:06.882Z,42.60
2023-03-28T18:59:32.030Z,42.70
2023-03-28T19:04:54.961Z,42.30
2023-03-28T19:10:19.882Z,42.60
2023-03-28T19:15:44.934Z,42.60
2023-03-28T19:21:09.926Z,42.80
2023-03-28T19:26:37.101Z,42.90
2023-03-28T19:32:01.902Z,43.00
2023-03-28T19:37:24.949Z,42.90
2023-03-28T19:42:51.099Z,43.10
2023-03-28T19:48:16.147Z,42.90
2023-03-28T19:53:39.979Z,43.00
2023-03-28T19:59:06.046Z,43.00
2023-03-28T20:04:34.037Z,43.20
2023-03-28T20:10:00.203Z,43.10
2023-03-28T20:15:24.958Z,43.50
2023-03-28T20:20:57.044Z,43.30
2023-03-28T20:26:37.339Z,43.30
2023-03-28T20:32:24.221Z,43.30
2023-03-28T20:38:08.956Z,43.40
2023-03-28T20:44:14.159Z,44.00
2023-03-28T20:55:18.992Z,44.70
2023-03-28T21:06:31.885Z,45.80
2023-03-28T21:11:57.032Z,45.20
2023-03-28T21:17:34.019Z,45.50
2023-03-28T21:23:07.047Z,45.50
2023-03-28T21:28:39.383Z,45.60
2023-03-28T21:34:23.903Z,45.80
2023-03-28T21:40:38.696Z,46.00
2023-03-28T21:46:24.035Z,45.90
2023-03-28T21:51:41.139Z,46.30
2023-03-28T21:57:05.129Z,46.00
2023-03-28T22:14:04.856Z,46.20
2023-03-28T22:20:04.866Z,46.10
2023-03-28T22:25:49.259Z,46.40
2023-03-28T22:31:56.350Z,46.20
2023-03-28T22:37:48.443Z,46.60
2023-03-28T22:43:11.197Z,46.30
2023-03-28T22:48:40.073Z,46.50
2023-03-28T22:54:08.092Z,46.40
2023-03-28T22:59:35.521Z,46.60
2023-03-28T23:05:09.245Z,47.00
2023-03-28T23:10:46.582Z,46.80
2023-03-28T23:16:10.085Z,47.00
2023-03-28T23:21:35.093Z,46.70
2023-03-28T23:27:00.118Z,47.00
2023-03-28T23:32:59.041Z,47.00
2023-03-28T23:38:42.248Z,47.50
2023-03-28T23:44:41.351Z,47.00
2023-03-28T23:50:20.323Z,47.40
2023-03-28T23:56:08.581Z,47.80
